Time;durP1;ratioP1;P1;durP2;ratioP2;P2;SDS_P1;SDS_P2;PMS_P1;PMS_P2;Temp;Humidity;BMP_temperature;BMP_pressure;BME280_temperature;BME280_humidity;BME280_pressure;Samples;Min_cycle;Max_cycle;Signal;HPM_P1;HPM_P2
2021/12/31 00:01:38;;;;;;;0.60;0.60;;;12.60;99.90;;;;;;5026371;28;20433;-79
2021/12/31 00:04:04;;;;;;;0.63;0.63;;;12.50;99.90;;;;;;5044133;28;20029;-78
2021/12/31 00:06:30;;;;;;;0.40;0.40;;;12.60;99.90;;;;;;5045070;28;20030;-78
2021/12/31 00:08:55;;;;;;;0.40;0.40;;;12.50;99.90;;;;;;5029611;28;20053;-79
2021/12/31 00:11:21;;;;;;;0.70;0.70;;;12.50;99.90;;;;;;5046333;28;20135;-80
2021/12/31 00:13:47;;;;;;;0.60;0.60;;;12.50;99.90;;;;;;5047979;28;20022;-80
2021/12/31 00:16:13;;;;;;;0.55;0.55;;;12.60;99.90;;;;;;5046525;28;20021;-79
2021/12/31 00:18:39;;;;;;;0.35;0.35;;;12.50;99.90;;;;;;5046514;28;20075;-80
2021/12/31 00:21:05;;;;;;;0.50;0.50;;;12.50;99.90;;;;;;5046731;28;20025;-80
2021/12/31 00:23:30;;;;;;;0.43;0.43;;;12.50;99.90;;;;;;5045856;28;20040;-79
2021/12/31 00:25:56;;;;;;;0.40;0.40;;;12.50;99.90;;;;;;5047030;28;20056;-79
2021/12/31 00:28:22;;;;;;;0.40;0.40;;;12.50;99.90;;;;;;5028035;28;20032;-79
2021/12/31 00:30:53;;;;;;;0.30;0.30;;;12.50;99.90;;;;;;5046098;28;20018;-79
2021/12/31 00:33:20;;;;;;;0.40;0.40;;;12.50;99.90;;;;;;5028479;28;20038;-79
2021/12/31 00:35:46;;;;;;;0.50;0.45;;;12.50;99.90;;;;;;5028305;28;20022;-79
2021/12/31 00:38:12;;;;;;;0.55;0.55;;;12.50;99.90;;;;;;5044856;28;20026;-79
2021/12/31 00:40:38;;;;;;;0.40;0.40;;;12.50;99.90;;;;;;5027861;28;20033;-80
2021/12/31 00:43:06;;;;;;;0.73;0.38;;;12.50;99.90;;;;;;5045189;28;20048;-79
2021/12/31 00:45:36;;;;;;;0.68;0.35;;;12.50;99.90;;;;;;5047852;28;20028;-79
2021/12/31 00:48:03;;;;;;;0.40;0.40;;;12.50;99.90;;;;;;5053191;28;20022;-79
2021/12/31 00:50:31;;;;;;;2.38;0.47;;;12.50;99.90;;;;;;5050587;28;20022;-78
2021/12/31 00:52:57;;;;;;;1.85;0.40;;;12.60;99.90;;;;;;5050807;28;20030;-79
2021/12/31 00:55:23;;;;;;;0.32;0.28;;;12.60;99.90;;;;;;5033603;28;20116;-79
2021/12/31 00:57:49;;;;;;;1.13;0.40;;;12.60;99.90;;;;;;5030937;28;20039;-79
2021/12/31 01:00:16;;;;;;;0.30;0.30;;;12.50;99.90;;;;;;5050030;28;20101;-79
2021/12/31 01:09:30;;;;;;;0.20;0.20;;;12.50;99.90;;;;;;5055342;28;20033;-80
2021/12/31 01:13:06;;;;;;;0.47;0.47;;;12.50;99.90;;;;;;4991378;28;20197;-79
2021/12/31 01:15:44;;;;;;;0.30;0.20;;;12.50;99.90;;;;;;5043274;28;20018;-79
2021/12/31 01:20:39;;;;;;;0.40;0.40;;;12.40;99.90;;;;;;5042247;28;20387;-79
2021/12/31 01:23:16;;;;;;;0.50;0.50;;;12.40;99.90;;;;;;5049539;28;20021;-79
2021/12/31 01:25:42;;;;;;;0.63;0.40;;;12.40;99.90;;;;;;5056913;28;20081;-79
2021/12/31 01:28:07;;;;;;;0.70;0.70;;;12.40;99.90;;;;;;5037550;28;20044;-80
2021/12/31 01:30:36;;;;;;;0.30;0.30;;;12.40;99.90;;;;;;5026812;28;20026;-79
2021/12/31 01:33:04;;;;;;;2.38;0.25;;;12.50;99.90;;;;;;5044117;28;20025;-78
2021/12/31 01:35:30;;;;;;;0.30;0.30;;;12.40;99.90;;;;;;5042635;28;20117;-80
2021/12/31 01:37:56;;;;;;;0.40;0.30;;;12.40;99.90;;;;;;5044130;28;20562;-79
2021/12/31 01:40:24;;;;;;;0.30;0.30;;;12.40;99.90;;;;;;5044458;28;20032;-79
2021/12/31 01:42:50;;;;;;;0.20;0.20;;;12.40;99.90;;;;;;5045590;28;20033;-80
2021/12/31 01:45:19;;;;;;;0.30;0.30;;;12.40;99.90;;;;;;5044010;28;20585;-80
2021/12/31 01:50:20;;;;;;;0.28;0.20;;;12.40;99.90;;;;;;5049772;28;20016;-77
2021/12/31 01:52:46;;;;;;;0.40;0.40;;;12.40;99.90;;;;;;5036518;28;20425;-79
2021/12/31 01:55:14;;;;;;;0.40;0.40;;;12.40;99.90;;;;;;5056211;28;20017;-79
2021/12/31 01:57:41;;;;;;;0.43;0.43;;;12.40;99.90;;;;;;5055464;28;20113;-79
2021/12/31 02:00:09;;;;;;;0.22;0.22;;;12.40;99.90;;;;;;5051122;28;20032;-80
2021/12/31 02:02:35;;;;;;;1.02;0.93;;;12.40;99.90;;;;;;5032447;28;20582;-80
2021/12/31 02:05:03;;;;;;;0.35;0.32;;;12.40;99.90;;;;;;5046024;28;20068;-79
2021/12/31 02:07:29;;;;;;;0.70;0.43;;;12.40;99.90;;;;;;5047477;28;20025;-79
2021/12/31 02:09:55;;;;;;;0.77;0.40;;;12.40;99.90;;;;;;5048076;28;20030;-80
2021/12/31 02:12:24;;;;;;;1.83;0.43;;;12.40;99.90;;;;;;5047035;28;20421;-79
2021/12/31 02:14:51;;;;;;;0.20;0.20;;;12.40;99.90;;;;;;5048109;28;20402;-80
2021/12/31 02:17:19;;;;;;;1.00;0.30;;;12.40;99.90;;;;;;5031596;28;20033;-79
2021/12/31 02:20:05;;;;;;;0.20;0.15;;;12.40;99.90;;;;;;5048338;28;20032;-79
2021/12/31 02:22:34;;;;;;;0.90;0.30;;;12.40;99.90;;;;;;5030592;28;20022;-79
2021/12/31 02:25:03;;;;;;;0.20;0.20;;;12.40;99.90;;;;;;5029746;28;20034;-79
2021/12/31 02:27:39;;;;;;;0.40;0.40;;;12.40;99.90;;;;;;5046257;28;20049;-78
2021/12/31 02:30:08;;;;;;;0.20;0.20;;;12.40;99.90;;;;;;5023448;28;20033;-78
2021/12/31 02:32:34;;;;;;;0.30;0.20;;;12.30;99.90;;;;;;5041702;28;20029;-80
2021/12/31 02:35:00;;;;;;;1.90;0.60;;;12.30;99.90;;;;;;5031179;28;20032;-79
2021/12/31 02:37:27;;;;;;;0.40;0.40;;;12.30;99.90;;;;;;5043758;28;20081;-79
2021/12/31 02:39:53;;;;;;;0.28;0.28;;;12.30;99.90;;;;;;5043176;28;20102;-79
2021/12/31 02:42:18;;;;;;;0.40;0.40;;;12.30;99.90;;;;;;5044507;28;20048;-79
2021/12/31 02:44:44;;;;;;;0.47;0.20;;;12.30;99.90;;;;;;5042732;28;20029;-79
2021/12/31 02:47:10;;;;;;;0.57;0.40;;;12.30;99.90;;;;;;5041972;28;20024;-79
2021/12/31 02:49:39;;;;;;;0.85;0.30;;;12.30;99.90;;;;;;5041479;28;20014;-78
2021/12/31 02:52:08;;;;;;;0.75;0.40;;;12.20;99.90;;;;;;5039752;28;20018;-78
2021/12/31 02:54:41;;;;;;;0.70;0.47;;;12.30;99.90;;;;;;5040825;28;20026;-79
2021/12/31 02:57:06;;;;;;;;;;;12.30;99.90;;;;;;5023903;28;20405;-80
2021/12/31 02:59:37;;;;;;;0.70;0.40;;;12.20;99.90;;;;;;5042082;28;19905;-80
2021/12/31 03:02:06;;;;;;;0.45;0.40;;;12.20;99.90;;;;;;5023733;28;20128;-78
2021/12/31 03:04:36;;;;;;;0.43;0.43;;;12.20;99.90;;;;;;5040824;28;20032;-80
2021/12/31 03:07:05;;;;;;;0.38;0.30;;;12.20;99.90;;;;;;5022683;28;20089;-78
2021/12/31 03:09:32;;;;;;;0.43;0.43;;;12.20;99.90;;;;;;5022906;28;20032;-79
2021/12/31 03:11:59;;;;;;;0.47;0.40;;;12.20;99.90;;;;;;5041760;28;20022;-80
2021/12/31 03:14:26;;;;;;;0.38;0.38;;;12.20;99.90;;;;;;5041793;28;20454;-79
2021/12/31 03:17:16;;;;;;;0.40;0.40;;;12.20;99.90;;;;;;5039555;28;20048;-80
2021/12/31 03:19:43;;;;;;;0.45;0.45;;;12.10;99.90;;;;;;5038863;28;20151;-79
2021/12/31 03:22:08;;;;;;;0.40;0.35;;;12.20;99.90;;;;;;5022200;28;20040;-79
2021/12/31 03:24:34;;;;;;;0.65;0.30;;;12.10;99.90;;;;;;5039509;28;20417;-79
2021/12/31 03:27:00;;;;;;;0.35;0.20;;;12.10;99.90;;;;;;5039125;28;20047;-79
2021/12/31 03:29:26;;;;;;;0.30;0.30;;;12.10;99.90;;;;;;5044919;28;20120;-79
2021/12/31 03:31:52;;;;;;;0.20;0.20;;;12.10;99.90;;;;;;5047832;28;20048;-79
2021/12/31 03:34:19;;;;;;;0.20;0.20;;;12.00;99.90;;;;;;5058550;22;20046;-80
2021/12/31 03:36:45;;;;;;;0.40;0.40;;;12.00;99.90;;;;;;5042863;28;20029;-79
2021/12/31 03:39:14;;;;;;;0.40;0.40;;;12.00;99.90;;;;;;5046852;28;20021;-78
2021/12/31 03:41:44;;;;;;;0.35;0.25;;;12.00;99.90;;;;;;5030532;28;20084;-80
2021/12/31 03:44:13;;;;;;;0.30;0.30;;;12.00;99.90;;;;;;5049187;28;20071;-78
2021/12/31 03:46:42;;;;;;;0.45;0.40;;;11.90;99.90;;;;;;5032240;28;20026;-77
2021/12/31 03:49:07;;;;;;;0.30;0.30;;;11.90;99.90;;;;;;5049466;28;20025;-78
2021/12/31 03:51:33;;;;;;;0.70;0.47;;;11.90;99.90;;;;;;5048399;28;20060;-79
2021/12/31 03:54:02;;;;;;;0.30;0.30;;;11.90;99.90;;;;;;5046397;28;20087;-79
2021/12/31 03:56:32;;;;;;;0.63;0.32;;;11.90;99.90;;;;;;5032664;28;20025;-79
2021/12/31 03:58:59;;;;;;;0.50;0.30;;;11.80;99.90;;;;;;5042190;28;20030;-78
2021/12/31 04:01:28;;;;;;;0.20;0.20;;;11.80;99.90;;;;;;5029250;28;20021;-78
2021/12/31 04:03:58;;;;;;;0.65;0.30;;;11.80;99.90;;;;;;5031613;28;20548;-79
2021/12/31 04:06:24;;;;;;;0.40;0.40;;;11.80;99.90;;;;;;5048680;28;20079;-80
2021/12/31 04:08:51;;;;;;;0.73;0.40;;;11.80;99.90;;;;;;5032203;28;20029;-79
2021/12/31 04:11:17;;;;;;;0.40;0.40;;;11.80;99.90;;;;;;5030609;28;20053;-79
2021/12/31 04:13:43;;;;;;;0.38;0.38;;;11.80;99.90;;;;;;5029792;28;20029;-79
2021/12/31 04:16:09;;;;;;;0.95;0.25;;;11.70;99.90;;;;;;5046498;28;20052;-79
2021/12/31 04:18:35;;;;;;;0.50;0.50;;;11.80;99.90;;;;;;5044996;28;20072;-77
2021/12/31 04:21:01;;;;;;;0.40;0.40;;;11.80;99.90;;;;;;5045292;28;20021;-78
2021/12/31 04:25:55;;;;;;;0.63;0.43;;;11.80;99.90;;;;;;5044708;28;20032;-78
2021/12/31 04:28:21;;;;;;;0.68;0.60;;;11.80;99.90;;;;;;5045190;28;20029;-77
2021/12/31 04:30:47;;;;;;;0.40;0.40;;;11.80;99.90;;;;;;5044575;28;20021;-78
2021/12/31 04:33:13;;;;;;;0.47;0.47;;;11.70;99.90;;;;;;5026064;28;20049;-78
2021/12/31 04:35:39;;;;;;;0.50;0.50;;;11.80;99.90;;;;;;5044498;28;20033;-78
2021/12/31 04:38:05;;;;;;;0.40;0.40;;;11.70;99.90;;;;;;5033493;28;20029;-77
2021/12/31 04:40:31;;;;;;;0.40;0.40;;;11.70;99.90;;;;;;5035402;28;20030;-79
2021/12/31 04:42:57;;;;;;;0.85;0.60;;;11.70;99.90;;;;;;5020621;28;20025;-77
2021/12/31 04:45:25;;;;;;;0.80;0.40;;;11.60;99.90;;;;;;5044306;28;20474;-78
2021/12/31 04:47:51;;;;;;;0.70;0.70;;;11.60;99.90;;;;;;5025264;28;20518;-78
2021/12/31 04:50:17;;;;;;;0.40;0.40;;;11.60;99.90;;;;;;5006992;28;20053;-78
2021/12/31 04:52:43;;;;;;;0.57;0.57;;;11.60;99.90;;;;;;5007222;28;20026;-77
2021/12/31 04:55:10;;;;;;;0.50;0.50;;;11.60;99.90;;;;;;5024164;28;20121;-78
2021/12/31 04:57:36;;;;;;;0.38;0.38;;;11.70;99.90;;;;;;5007415;28;20436;-78
2021/12/31 05:00:06;;;;;;;0.88;0.55;;;11.70;99.90;;;;;;5009150;28;20026;-78
2021/12/31 05:02:32;;;;;;;0.38;0.35;;;11.70;99.90;;;;;;5008233;28;20037;-79
2021/12/31 05:04:58;;;;;;;0.60;0.38;;;11.70;99.90;;;;;;5009903;28;20087;-79
2021/12/31 05:07:24;;;;;;;0.82;0.57;;;11.70;99.90;;;;;;5027378;28;20018;-78
2021/12/31 05:09:49;;;;;;;0.52;0.50;;;11.70;99.90;;;;;;5026820;28;20061;-78
2021/12/31 05:12:21;;;;;;;0.47;0.47;;;11.70;99.90;;;;;;5011348;28;20054;-79
2021/12/31 05:14:47;;;;;;;0.50;0.50;;;11.70;99.90;;;;;;5026979;28;20033;-79
2021/12/31 05:17:13;;;;;;;0.38;0.38;;;11.70;99.90;;;;;;5010537;28;20406;-79
2021/12/31 05:19:43;;;;;;;0.35;0.35;;;11.70;99.90;;;;;;5026825;28;20045;-79
2021/12/31 05:22:10;;;;;;;0.63;0.50;;;11.60;99.90;;;;;;5026809;28;20022;-80
2021/12/31 05:24:36;;;;;;;0.40;0.40;;;11.50;99.90;;;;;;5024968;28;20045;-78
2021/12/31 05:27:02;;;;;;;0.85;0.55;;;11.30;99.90;;;;;;5006758;28;20085;-80
2021/12/31 05:29:28;;;;;;;0.52;0.52;;;11.20;99.90;;;;;;5032620;28;20052;-80
2021/12/31 05:31:54;;;;;;;0.57;0.52;;;11.00;99.90;;;;;;5046791;28;20025;-78
2021/12/31 05:34:20;;;;;;;0.25;0.25;;;10.90;99.90;;;;;;5051937;28;20045;-81
2021/12/31 05:36:48;;;;;;;2.17;0.60;;;10.80;99.90;;;;;;5046885;28;20021;-79
2021/12/31 05:39:14;;;;;;;0.68;0.63;;;10.70;99.90;;;;;;5016815;28;20102;-78
2021/12/31 05:41:40;;;;;;;0.90;0.50;;;10.70;99.90;;;;;;5011675;28;20069;-76
2021/12/31 05:44:09;;;;;;;0.50;0.50;;;10.60;99.90;;;;;;5024978;28;20037;-78
2021/12/31 05:46:36;;;;;;;0.60;0.60;;;10.60;99.90;;;;;;5024446;28;20030;-78
2021/12/31 05:49:03;;;;;;;0.50;0.50;;;10.50;99.90;;;;;;5024757;28;20378;-78
2021/12/31 05:51:30;;;;;;;1.10;0.73;;;10.40;99.90;;;;;;5024502;28;20098;-77
2021/12/31 05:53:56;;;;;;;0.50;0.50;;;10.50;99.90;;;;;;5007123;28;20057;-76
2021/12/31 05:56:22;;;;;;;2.58;0.70;;;10.50;99.90;;;;;;5025217;28;20084;-78
2021/12/31 05:58:47;;;;;;;1.33;0.68;;;10.60;99.90;;;;;;5024625;28;20084;-78
2021/12/31 06:01:13;;;;;;;0.50;0.50;;;10.70;99.90;;;;;;5022366;28;20026;-77
2021/12/31 06:03:39;;;;;;;1.30;0.82;;;10.70;99.90;;;;;;5031099;28;20049;-76
2021/12/31 06:06:05;;;;;;;1.70;1.30;;;10.80;99.90;;;;;;5044310;28;20018;-77
2021/12/31 06:08:31;;;;;;;1.58;1.48;;;10.80;99.90;;;;;;5044438;28;20106;-77
2021/12/31 06:10:57;;;;;;;1.73;1.63;;;10.80;99.90;;;;;;5044714;28;20026;-78
2021/12/31 06:13:22;;;;;;;2.80;2.60;;;10.80;99.90;;;;;;5024076;28;20028;-78
2021/12/31 06:15:55;;;;;;;3.40;2.72;;;10.90;99.90;;;;;;5045763;28;20022;-78
2021/12/31 06:18:21;;;;;;;5.25;4.03;;;10.80;99.90;;;;;;5045950;28;20021;-78
2021/12/31 06:20:47;;;;;;;13.25;7.13;;;10.90;99.90;;;;;;5046370;28;20021;-78
2021/12/31 06:23:12;;;;;;;10.85;7.00;;;10.80;99.90;;;;;;5026880;28;20021;-79
2021/12/31 06:25:38;;;;;;;8.27;5.53;;;10.80;99.90;;;;;;5025410;28;20085;-78
2021/12/31 06:28:04;;;;;;;6.35;4.80;;;10.90;99.90;;;;;;5049435;28;20033;-78
2021/12/31 06:30:30;;;;;;;6.18;4.70;;;10.90;99.90;;;;;;5026470;28;20438;-77
2021/12/31 06:32:56;;;;;;;5.38;3.83;;;10.80;99.90;;;;;;5033772;28;20038;-79
2021/12/31 06:35:23;;;;;;;4.93;3.50;;;10.80;99.90;;;;;;5017716;28;20025;-78
2021/12/31 06:37:51;;;;;;;3.13;2.75;;;10.80;99.90;;;;;;5030575;28;20021;-80
2021/12/31 06:40:17;;;;;;;2.72;2.20;;;10.80;99.90;;;;;;5046286;28;20021;-76
2021/12/31 06:42:43;;;;;;;3.47;2.00;;;10.80;99.90;;;;;;5026900;28;20026;-79
2021/12/31 06:45:09;;;;;;;2.03;1.70;;;10.70;99.90;;;;;;5024114;28;20033;-79
2021/12/31 06:47:35;;;;;;;1.23;1.13;;;10.70;99.90;;;;;;5041090;28;20044;-77
2021/12/31 06:50:02;;;;;;;1.63;1.13;;;10.70;99.90;;;;;;5026637;28;20026;-76
2021/12/31 06:52:27;;;;;;;0.98;0.98;;;10.70;99.90;;;;;;5014537;28;20032;-78
2021/12/31 06:54:53;;;;;;;0.70;0.70;;;10.70;99.90;;;;;;5024788;28;20025;-77
2021/12/31 06:57:19;;;;;;;0.95;0.80;;;10.70;99.90;;;;;;5043551;28;20022;-78
2021/12/31 06:59:44;;;;;;;3.35;1.00;;;10.70;99.90;;;;;;5043484;28;20035;-77
2021/12/31 07:02:10;;;;;;;1.13;0.60;;;10.70;99.90;;;;;;5043469;28;20029;-76
2021/12/31 07:04:36;;;;;;;1.30;0.90;;;10.70;99.90;;;;;;5016683;28;20030;-77
2021/12/31 07:07:01;;;;;;;0.80;0.80;;;10.70;99.90;;;;;;5042853;28;20612;-76
2021/12/31 07:09:27;;;;;;;1.25;0.80;;;10.70;99.90;;;;;;5024278;28;20116;-79
2021/12/31 07:11:53;;;;;;;0.77;0.70;;;10.70;99.90;;;;;;5017983;28;20108;-80
2021/12/31 07:14:19;;;;;;;0.70;0.70;;;10.70;99.90;;;;;;5031858;28;20035;-76
2021/12/31 07:16:44;;;;;;;1.85;0.75;;;10.60;99.90;;;;;;5020666;28;20113;-78
2021/12/31 07:19:10;;;;;;;1.08;0.90;;;10.60;99.90;;;;;;5021694;28;20026;-79
2021/12/31 07:21:36;;;;;;;0.60;0.60;;;10.60;99.90;;;;;;5021363;28;20412;-78
2021/12/31 07:24:02;;;;;;;1.17;0.90;;;10.60;99.90;;;;;;5022453;28;20030;-78
2021/12/31 07:26:28;;;;;;;1.75;1.27;;;10.60;99.90;;;;;;5022303;28;20025;-76
2021/12/31 07:28:53;;;;;;;0.98;0.60;;;10.60;99.90;;;;;;5005505;28;20022;-78
2021/12/31 07:31:19;;;;;;;0.98;0.70;;;10.60;99.90;;;;;;5023538;28;20060;-77
2021/12/31 07:33:45;;;;;;;1.63;0.60;;;10.60;99.90;;;;;;5023879;28;20109;-77
2021/12/31 07:36:11;;;;;;;0.80;0.50;;;10.60;99.90;;;;;;5022784;28;20033;-76
2021/12/31 07:38:40;;;;;;;0.60;0.60;;;10.50;99.90;;;;;;5042642;28;20387;-77
2021/12/31 07:41:06;;;;;;;0.52;0.52;;;10.50;99.90;;;;;;5039489;28;20112;-79
2021/12/31 07:43:32;;;;;;;1.00;0.50;;;10.50;99.90;;;;;;5031069;28;20085;-78
2021/12/31 07:45:59;;;;;;;0.85;0.73;;;10.50;99.90;;;;;;5035337;28;20018;-79
2021/12/31 07:48:25;;;;;;;1.15;0.77;;;10.40;99.90;;;;;;5040657;28;20482;-77
2021/12/31 07:50:52;;;;;;;1.30;0.80;;;10.40;99.90;;;;;;5039347;28;20029;-79
2021/12/31 07:53:18;;;;;;;1.17;0.70;;;10.40;99.90;;;;;;5040024;28;20021;-78
2021/12/31 07:55:44;;;;;;;2.83;0.60;;;10.40;99.90;;;;;;5022617;28;20069;-77
2021/12/31 07:58:10;;;;;;;0.88;0.68;;;10.40;99.90;;;;;;5029859;28;20060;-77
2021/12/31 08:00:36;;;;;;;1.25;0.70;;;10.40;99.90;;;;;;5046965;28;20175;-78
2021/12/31 08:03:03;;;;;;;1.92;0.82;;;10.40;99.90;;;;;;5047321;28;20044;-78
2021/12/31 08:05:30;;;;;;;0.60;0.60;;;10.30;99.90;;;;;;5041818;28;20026;-78
2021/12/31 08:07:57;;;;;;;0.90;0.82;;;10.30;99.90;;;;;;5043793;28;20100;-80
2021/12/31 08:10:22;;;;;;;1.33;0.75;;;10.30;99.90;;;;;;5040922;28;20033;-81
2021/12/31 08:12:48;;;;;;;1.77;0.85;;;10.30;99.90;;;;;;5027649;28;20017;-77
2021/12/31 08:15:14;;;;;;;1.13;0.57;;;10.30;99.90;;;;;;5039866;28;20036;-78
2021/12/31 08:17:40;;;;;;;3.08;0.88;;;10.40;99.90;;;;;;5019950;28;20079;-77
2021/12/31 08:20:06;;;;;;;0.70;0.70;;;10.60;99.90;;;;;;5039321;28;20033;-77
2021/12/31 08:22:32;;;;;;;0.75;0.60;;;10.90;99.90;;;;;;5042514;28;20034;-78
2021/12/31 08:24:58;;;;;;;0.68;0.60;;;11.10;99.90;;;;;;5042081;28;20029;-78
2021/12/31 08:27:24;;;;;;;0.75;0.75;;;11.30;99.90;;;;;;5028159;28;20060;-77
2021/12/31 08:29:49;;;;;;;0.88;0.77;;;11.50;99.90;;;;;;5022536;28;20030;-79
2021/12/31 08:32:15;;;;;;;0.55;0.50;;;11.60;99.90;;;;;;5020380;28;20177;-79
2021/12/31 08:34:41;;;;;;;0.70;0.60;;;11.60;99.90;;;;;;5004999;28;20092;-79
2021/12/31 08:37:07;;;;;;;0.93;0.50;;;11.70;99.90;;;;;;5004737;28;20054;-77
2021/12/31 08:39:33;;;;;;;0.57;0.57;;;11.70;99.90;;;;;;5015657;28;20021;-79
2021/12/31 08:42:02;;;;;;;0.60;0.60;;;11.70;99.90;;;;;;5042170;28;20025;-78
2021/12/31 08:44:28;;;;;;;0.75;0.43;;;11.70;99.90;;;;;;5005273;28;20030;-79
2021/12/31 08:46:54;;;;;;;0.75;0.60;;;11.70;99.90;;;;;;5008375;28;20409;-79
2021/12/31 08:49:26;;;;;;;1.08;0.93;;;11.80;99.90;;;;;;5033291;28;20022;-79
2021/12/31 08:51:52;;;;;;;0.68;0.57;;;11.90;99.90;;;;;;5018554;28;20018;-79
2021/12/31 08:54:18;;;;;;;0.60;0.60;;;12.00;99.90;;;;;;5002105;28;20390;-78
2021/12/31 08:56:45;;;;;;;0.60;0.60;;;12.10;99.90;;;;;;5005719;28;20076;-78
2021/12/31 08:59:10;;;;;;;1.10;0.63;;;12.30;99.90;;;;;;5003422;28;20057;-78
2021/12/31 09:01:36;;;;;;;1.13;0.75;;;12.30;99.90;;;;;;5022187;28;20327;-79
2021/12/31 09:04:03;;;;;;;1.30;0.90;;;12.50;99.90;;;;;;5004532;28;20030;-80
2021/12/31 09:06:29;;;;;;;1.10;0.80;;;12.60;99.90;;;;;;5004791;28;20030;-77
2021/12/31 09:08:55;;;;;;;0.70;0.70;;;12.70;99.90;;;;;;5022868;28;20377;-78
2021/12/31 09:11:24;;;;;;;0.55;0.50;;;12.80;99.70;;;;;;5050866;28;20033;-78
2021/12/31 09:13:53;;;;;;;0.95;0.77;;;12.90;99.50;;;;;;5025634;28;20061;-78
2021/12/31 09:16:19;;;;;;;0.57;0.57;;;13.10;99.20;;;;;;5028643;28;20565;-79
2021/12/31 09:18:45;;;;;;;2.00;0.52;;;13.30;98.50;;;;;;5046689;28;20033;-77
2021/12/31 09:21:11;;;;;;;0.65;0.65;;;13.40;98.20;;;;;;5045164;28;20486;-79
2021/12/31 09:23:36;;;;;;;1.15;0.60;;;13.50;97.60;;;;;;5028640;28;20036;-79
2021/12/31 09:26:02;;;;;;;0.70;0.70;;;13.60;97.20;;;;;;5045303;28;20033;-79
2021/12/31 09:28:28;;;;;;;0.52;0.52;;;13.60;97.00;;;;;;5019853;28;20498;-79
2021/12/31 09:31:00;;;;;;;0.75;0.43;;;13.50;96.80;;;;;;5024040;28;20029;-78
2021/12/31 09:33:27;;;;;;;0.70;0.65;;;13.50;97.00;;;;;;5008463;28;20052;-79
2021/12/31 09:35:52;;;;;;;0.70;0.70;;;13.60;96.90;;;;;;5033366;28;20022;-81
2021/12/31 09:38:18;;;;;;;1.58;1.08;;;13.60;96.70;;;;;;5031816;28;20068;-81
2021/12/31 09:40:44;;;;;;;1.45;0.70;;;13.60;96.80;;;;;;5029608;28;20045;-79
2021/12/31 09:43:12;;;;;;;0.60;0.60;;;13.60;96.80;;;;;;5025316;28;20021;-79
2021/12/31 09:45:40;;;;;;;6.63;1.13;;;13.60;96.80;;;;;;5028946;28;20022;-78
2021/12/31 09:48:21;;;;;;;2.25;1.35;;;13.70;96.40;;;;;;5020139;28;20013;-79
2021/12/31 09:50:50;;;;;;;1.45;1.20;;;13.80;96.30;;;;;;5055509;28;20037;-79
2021/12/31 09:53:20;;;;;;;0.85;0.75;;;13.90;96.10;;;;;;5033530;28;20043;-79
2021/12/31 09:55:47;;;;;;;1.35;0.77;;;13.90;96.10;;;;;;5049431;28;20057;-78
2021/12/31 09:58:15;;;;;;;0.98;0.70;;;14.00;96.10;;;;;;5033022;28;20060;-79
2021/12/31 10:00:50;;;;;;;1.00;0.90;;;14.00;95.90;;;;;;5020504;28;20022;-79
2021/12/31 10:03:22;;;;;;;0.63;0.63;;;14.00;95.90;;;;;;5014388;28;20025;-79
2021/12/31 10:05:53;;;;;;;0.88;0.60;;;14.00;95.70;;;;;;5031405;28;20486;-79
2021/12/31 10:08:26;;;;;;;0.95;0.90;;;14.00;95.60;;;;;;5017277;28;20057;-80
2021/12/31 10:11:16;;;;;;;1.77;0.93;;;14.20;95.50;;;;;;5024476;28;20022;-78
2021/12/31 10:13:59;;;;;;;0.90;0.70;;;14.20;95.30;;;;;;5046194;28;20017;-80
2021/12/31 10:16:30;;;;;;;2.30;1.15;;;14.30;94.80;;;;;;5034416;28;20018;-79
2021/12/31 10:19:20;;;;;;;0.75;0.75;;;14.40;94.60;;;;;;5034324;28;20033;-79
2021/12/31 10:21:54;;;;;;;0.65;0.65;;;14.40;94.40;;;;;;5033840;28;20030;-80
2021/12/31 10:24:34;;;;;;;0.65;0.65;;;14.50;94.20;;;;;;5014748;28;20029;-81
2021/12/31 10:27:09;;;;;;;1.00;0.60;;;14.50;94.00;;;;;;5032934;28;20110;-80
2021/12/31 10:29:49;;;;;;;0.63;0.50;;;14.50;94.00;;;;;;5015003;28;20022;-79
2021/12/31 10:32:19;;;;;;;1.63;0.65;;;14.50;93.90;;;;;;5034091;28;20022;-79
2021/12/31 10:34:44;;;;;;;0.50;0.50;;;14.50;93.70;;;;;;5015067;28;20089;-79
2021/12/31 10:37:25;;;;;;;0.85;0.60;;;14.50;93.80;;;;;;5015185;28;20117;-80
2021/12/31 10:40:01;;;;;;;0.80;0.75;;;14.50;93.70;;;;;;5016380;28;20030;-79
2021/12/31 10:42:33;;;;;;;0.50;0.50;;;14.60;93.30;;;;;;5041771;28;20036;-80
2021/12/31 10:45:02;;;;;;;0.73;0.73;;;14.60;93.30;;;;;;5053034;28;20025;-79
2021/12/31 10:47:31;;;;;;;0.47;0.38;;;14.60;93.10;;;;;;5034149;28;20025;-80
2021/12/31 10:50:07;;;;;;;0.95;0.50;;;14.50;93.00;;;;;;5050519;28;20025;-76
2021/12/31 10:52:40;;;;;;;0.93;0.55;;;14.50;93.10;;;;;;5036372;28;20027;-80
2021/12/31 10:55:23;;;;;;;1.35;0.50;;;14.50;92.90;;;;;;5052910;28;20020;-79
2021/12/31 10:57:52;;;;;;;1.48;0.65;;;14.60;92.90;;;;;;5050261;28;20060;-78
2021/12/31 11:00:19;;;;;;;0.60;0.60;;;14.60;92.70;;;;;;5049943;28;20444;-78
2021/12/31 11:02:49;;;;;;;0.65;0.63;;;14.60;92.60;;;;;;5034023;28;20105;-81
2021/12/31 11:05:23;;;;;;;0.80;0.70;;;14.60;92.60;;;;;;5053684;28;20059;-81
2021/12/31 11:07:50;;;;;;;0.98;0.93;;;14.60;92.50;;;;;;5053360;28;20017;-82
2021/12/31 11:10:18;;;;;;;0.90;0.55;;;14.50;92.60;;;;;;5032414;28;20032;-79
2021/12/31 11:12:46;;;;;;;0.95;0.55;;;14.60;92.40;;;;;;5039484;28;20010;-79
2021/12/31 11:15:22;;;;;;;1.30;0.40;;;14.50;92.30;;;;;;5013314;28;20057;-80
2021/12/31 11:17:52;;;;;;;0.63;0.60;;;14.50;92.20;;;;;;5033273;28;20034;-80
2021/12/31 11:20:21;;;;;;;0.75;0.40;;;14.50;92.20;;;;;;5031801;28;20040;-81
2021/12/31 11:22:47;;;;;;;0.55;0.30;;;14.50;92.20;;;;;;5041539;28;20104;-81
2021/12/31 11:25:19;;;;;;;0.50;0.40;;;14.50;92.30;;;;;;5050553;28;20052;-80
2021/12/31 11:27:51;;;;;;;0.30;0.30;;;14.50;92.20;;;;;;5033427;28;20021;-80
2021/12/31 11:30:31;;;;;;;;;;;14.50;92.10;;;;;;5034120;28;20025;-80
2021/12/31 11:32:58;;;;;;;0.35;0.35;;;14.40;92.00;;;;;;5026227;28;20028;-80
2021/12/31 11:35:30;;;;;;;0.30;0.30;;;14.30;92.20;;;;;;5032376;28;20036;-80
2021/12/31 11:37:56;;;;;;;0.63;0.50;;;14.30;92.20;;;;;;5013500;28;20083;-78
2021/12/31 11:40:40;;;;;;;0.73;0.30;;;14.20;92.20;;;;;;5030763;28;20026;-79
2021/12/31 11:43:17;;;;;;;0.40;0.40;;;14.20;92.20;;;;;;5031147;28;20026;-78
2021/12/31 11:45:43;;;;;;;0.30;0.30;;;14.20;92.30;;;;;;5014846;28;20060;-79
2021/12/31 11:49:04;;;;;;;1.05;0.45;;;14.20;92.20;;;;;;5028985;28;20013;-79
2021/12/31 11:51:35;;;;;;;0.40;0.40;;;14.20;92.20;;;;;;5031408;28;20089;-80
2021/12/31 11:54:02;;;;;;;0.75;0.40;;;14.20;92.30;;;;;;5025368;28;20033;-80
2021/12/31 11:56:38;;;;;;;0.88;0.50;;;14.20;92.40;;;;;;5033278;28;20033;-80
2021/12/31 11:59:16;;;;;;;0.65;0.40;;;14.20;92.10;;;;;;5035715;28;20052;-79
2021/12/31 12:01:54;;;;;;;1.35;0.70;;;14.30;92.10;;;;;;5051451;28;20026;-79
2021/12/31 12:04:28;;;;;;;0.95;0.80;;;14.20;92.00;;;;;;5035862;28;20041;-80
2021/12/31 12:07:14;;;;;;;0.63;0.60;;;14.30;91.90;;;;;;5052815;28;20022;-81
2021/12/31 12:09:43;;;;;;;0.43;0.43;;;14.30;91.60;;;;;;5053303;28;20073;-81
2021/12/31 12:12:14;;;;;;;0.30;0.30;;;14.40;91.50;;;;;;5036742;28;20097;-81
2021/12/31 12:14:48;;;;;;;0.68;0.40;;;14.40;91.50;;;;;;5052326;28;20035;-82
2021/12/31 12:17:29;;;;;;;2.72;0.50;;;14.50;91.30;;;;;;5032456;28;20029;-81
2021/12/31 12:20:01;;;;;;;1.00;0.50;;;14.50;91.10;;;;;;5033659;28;20026;-78
2021/12/31 12:22:27;;;;;;;0.45;0.45;;;14.60;91.00;;;;;;5030373;28;20026;-79
2021/12/31 12:24:55;;;;;;;0.52;0.52;;;14.60;90.70;;;;;;5026059;28;20017;-80
2021/12/31 12:27:22;;;;;;;0.45;0.40;;;14.60;90.50;;;;;;5034474;28;20027;-79
2021/12/31 12:29:50;;;;;;;1.73;0.68;;;14.60;90.30;;;;;;5052690;28;20075;-79
2021/12/31 12:32:19;;;;;;;0.30;0.30;;;14.70;90.10;;;;;;5051623;28;20048;-78
2021/12/31 12:34:45;;;;;;;2.60;0.57;;;14.80;90.00;;;;;;5028998;28;20062;-79
2021/12/31 12:37:11;;;;;;;0.73;0.55;;;14.80;90.10;;;;;;5031389;28;20056;-80
2021/12/31 12:39:37;;;;;;;1.58;0.50;;;14.90;88.80;;;;;;5016441;28;20025;-80
2021/12/31 12:42:07;;;;;;;0.52;0.47;;;15.00;88.60;;;;;;5016898;28;20030;-79
2021/12/31 12:44:36;;;;;;;1.63;0.90;;;15.00;88.40;;;;;;5034572;28;20029;-79
2021/12/31 12:47:03;;;;;;;0.82;0.50;;;15.00;87.60;;;;;;5018953;28;20113;-79
2021/12/31 12:49:34;;;;;;;0.20;0.20;;;15.00;87.40;;;;;;5045687;28;20025;-79
2021/12/31 12:52:15;;;;;;;0.45;0.40;;;15.10;86.90;;;;;;5036986;28;20029;-79
2021/12/31 12:54:49;;;;;;;0.40;0.40;;;15.20;83.40;;;;;;5036690;28;20048;-79
2021/12/31 12:57:24;;;;;;;0.47;0.40;;;15.30;79.90;;;;;;5052329;28;20470;-81
2021/12/31 12:59:50;;;;;;;1.75;0.60;;;15.30;79.60;;;;;;5035254;28;20030;-80
2021/12/31 13:02:36;;;;;;;0.65;0.55;;;15.40;79.20;;;;;;5033904;28;20033;-80
2021/12/31 13:05:14;;;;;;;0.95;0.57;;;15.40;78.70;;;;;;5051224;28;20033;-80
2021/12/31 13:07:52;;;;;;;0.63;0.60;;;15.50;76.40;;;;;;5050911;28;20021;-80
2021/12/31 13:10:22;;;;;;;0.95;0.57;;;15.50;75.70;;;;;;5032320;28;20026;-80